ADDS METAR Data INFO
IDs: Format: Raw Decoded Include TAF

Data at: 2240 UTC 22 Aug 2017

KHIE 222152Z AUTO VRB04KT 10SM FEW090 SCT120 28/18 A2970 RMK AO2 SLP055 T02780183
KHIE 222052Z AUTO 18008KT 10SM CLR 29/19 A2972 RMK AO2 SLP061 T02890189 56035
KHIE 221952Z AUTO VRB05KT 10SM CLR 29/18 A2973 RMK AO2 SLP065 T02890183
KHIE 221852Z AUTO 21010G16KT 10SM BKN050 29/18 A2978 RMK AO2 SLP080 T02890178
KHIE 221752Z AUTO 21007G16KT 160V270 10SM FEW049 SCT060 29/17 A2983 RMK AO2 SLP097 T02890167 10294 20161 56033
KHIE 221652Z AUTO 23008KT 190V270 10SM CLR 29/17 A2986 RMK AO2 SLP106 T02890172
KHIE 221552Z AUTO 17007KT 10SM CLR 28/17 A2988 RMK AO2 SLP115 T02780167
KHIE 221452Z AUTO 00000KT 10SM CLR 27/18 A2993 RMK AO2 SLP130 T02670183 58026
KHIE 221352Z AUTO 32003KT 10SM FEW037 24/17 A2996 RMK AO2 SLP144 T02390172
KHIE 221252Z AUTO 00000KT 10SM CLR 20/16 A2998 RMK AO2 SLP151 T02000161
KHIE 221152Z AUTO 00000KT 9SM CLR 16/13 A3001 RMK AO2 SLP159 T01610133 10161 20117 56003
KHIE 221052Z AUTO 00000KT 8SM SCT001 13/11 A3001 RMK AO2 SLP161 T01330111
KHIE 221002Z AUTO 00000KT 10SM SCT001 12/10 A3001 RMK AO2 T01170100
KHIE 220952Z AUTO 00000KT 10SM CLR 12/10 A3001 RMK AO2 SLP159 T01170100
KHIE 220924Z AUTO 00000KT 10SM FEW001 12/11 A3001 RMK AO2 T01220106
KHIE 220852Z AUTO 00000KT 10SM CLR 12/11 A3002 RMK AO2 SLP162 T01220106 58010
KHIE 220752Z AUTO 00000KT 10SM CLR 12/11 A3003 RMK AO2 SLP166 T01220106
KHIE 220652Z AUTO 00000KT 10SM CLR 13/12 A3004 RMK AO2 SLP170 T01330117
KHIE 220552Z AUTO 00000KT 8SM CLR 14/12 A3005 RMK AO2 SLP173 T01390122 10217 20139 58002
KHIE 220452Z AUTO 00000KT 9SM CLR 14/13 A3006 RMK AO2 SLP177 T01440128 402670094
KHIE 220352Z AUTO 00000KT 10SM CLR 15/13 A3006 RMK AO2 SLP176 T01500133
KHIE 220252Z AUTO 00000KT 10SM CLR 17/14 A3005 RMK AO2 SLP174 T01670144 56003
KHIE 220152Z AUTO 00000KT 10SM CLR 17/15 A3006 RMK AO2 SLP176 T01720150
KHIE 220052Z AUTO 00000KT 10SM CLR 21/15 A3005 RMK AO2 SLP175 T02060150
KHIE 212352Z AUTO 22003KT 10SM CLR 22/16 A3006 RMK AO2 SLP178 T02170161 10267 20217 55002
KHIE 212252Z AUTO 23003KT 10SM CLR 24/16 A3006 RMK AO2 SLP179 T02440161
KHIE 212152Z AUTO 22006KT 10SM CLR 26/16 A3006 RMK AO2 SLP176 T02610161
KHIE 212052Z AUTO 25006KT 10SM CLR 27/16 A3007 RMK AO2 SLP181 T02670156 56010
KHIE 211952Z AUTO VRB05KT 10SM CLR 27/16 A3007 RMK AO2 SLP182 T02670161
KHIE 211852Z AUTO 24004KT 10SM FEW044 26/16 A3008 RMK AO2 SLP185 T02560156
KHIE 211752Z AUTO 25010G15KT 220V280 10SM CLR 27/16 A3010 RMK AO2 SLP191 T02670156 10267 20144 58013
KHIE 211652Z AUTO 27008KT 10SM CLR 26/17 A3012 RMK AO2 SLP198 T02560167
KHIE 211552Z AUTO 24004KT 10SM CLR 24/16 A3014 RMK AO2 SLP204 T02440161
KHIE 211452Z AUTO 23006KT 10SM CLR 24/16 A3014 RMK AO2 SLP204 T02390161 58010
KHIE 211352Z AUTO 00000KT 10SM CLR 22/16 A3016 RMK AO2 SLP210 T02170161
KHIE 211252Z AUTO 00000KT 10SM CLR 18/14 A3016 RMK AO2 SLP213 T01780144
KHIE 211152Z AUTO 00000KT 10SM CLR 14/12 A3017 RMK AO2 SLP217 T01440117 10144 20094 51003
KHIE 211052Z AUTO 00000KT 10SM FEW047 11/09 A3017 RMK AO2 SLP217 T01110094